Kindersley, Canada
Current Conditions -  °F | °C
As of 11:00 PM on Monday 20 Oct 2014 (Local Time) from CYKY Reporting Station
Few Clouds Few Clouds  
Wind Chill: 42°   Ceiling: Unl
Heat Index: 46°   Visibility: 15mi
Dew Point: 36°   Wind: 9mph
Humidity: 66%   Direction: 160°SSE
Pressure: 29.61"   Gusts: NA
Location:  51.47°N, 109.16°W
Report Text: CYKY 210500Z 16008KT 15SM FEW250 08/02 A2961 RMK CI1 SLP033 DENSITY ALT 2300FT
Loading
Personal Weather Stations






























Interactive Weather Map
Tropical Storm Tracking
New forecast layout! Learn more

10-Day Weather Forecast

Advertisements
Track Severe Weather on mobile